Maxatawny, PA (19538)

11:30 PM EST on March 04, 2015 (GMT -0500)
Mertztown | Change Station
CLOSE
Current Station
Personal Weather Station
Location: Mertztown, PA
Elevation: 485 ft
Nearby Weather Stations
Active Advisory: Winter Storm Warning

Elev 485 ft 40.52 °N, 75.68 °W | Updated 5 minutes ago

Snow
Snow
36.9 °F
Feels Like 37 °F
N
1.0
Wind Variable Wind from SW
Gusts 3.0 mph

Today
High -- | Low -- °F
--% Chance of Precip.
Yesterday
High -- | Low -- °F
Precip. -- in
6:32 AM 5:57 PM
Full, 100% visible
Pressure 29.96 in
Visibility 4.0 miles
Clouds Scattered Clouds 4300 ft
Overcast 5500 ft
Windchill 37 °F
Dew Point 36 °F
Humidity 96%
Rainfall in
Snow Depth Not available.
UV 0 out of 12
Pollen .60 out of 12
Air Quality Not available.
Flu Activity Not available.
METAR KXLL 050415Z AUTO 24004KT 4SM RA SCT043 OVC055 03/01 A2996 RMK AO2 P0001

More Conditions Fewer Conditions

Pressure 29.96 in
Visibility 4.0 miles
Clouds Scattered Clouds 4300 ft
Overcast 5500 ft
Windchill 37 °F
Dew Point 36 °F
Humidity 96%
Rainfall in
Snow Depth Not available.
UV 0 out of 12
Pollen .60 out of 12
Air Quality Not available.
Flu Activity Not available.
METAR KXLL 050415Z AUTO 24004KT 4SM RA SCT043 OVC055 03/01 A2996 RMK AO2 P0001

More Conditions Fewer Conditions

10-Day Weather Forecast

Almanac

Astronomy

Mar. 04, 2015 Rise Set
Actual Time
Civil Twilight
Nautical Twilight
Astronomical Twilight
Moon
Length of Visible Light
Length of Day
Tomorrow will be .
, % of the Moon is Illuminated

Today's Extremes

State Highs State Lows

Community

WunderPhotos

Upload Photos

1,802,676 photos uploaded!

WunderBlogs® & News

Nearby

Air Quality

  Air Quality AQ Index Pollutant
Not available.

Snow Depth

Station Depth Elevation

Earthquake Activity

City Distance Mag. Time & Date
Minimum magnitude displayed is 2.5.

Coastal Water Temperatures

Place Temperature

Nearby Weather Stations

Winter Storm Warning
Statement as of 8:34 PM EST on March 04, 2015

... Winter Storm Warning remains in effect until 7 PM EST
Thursday...

* locations... portions of eastern Pennsylvania and central New
Jersey.

* Hazard types... a period of sleet then long duration snow.

* Snow accumulations... generally 4 to 8 inches.

* Timing... sleet developing near midnight then changing to snow by
3 am... continuing through early Thursday afternoon possibly
heavy at times.

* Temperatures... falling to between 28 and 32 at daybreak Thursday
then falling through the 20s during the daylight hours.

* Wind... becoming north and gusting to 20 mph during the day
Thursday.

* Visibility... may lower briefly to one half mile during Thursday
morning or midday.

* Impacts... widespread and substantial impacts on travel are
expected Thursday, especially for the Thursday morning commute.

Precautionary/preparedness actions...

This Winter Storm Warning means that significant amounts of snow
are expected. The snow will make travel very hazardous or
impossible.